Have a Safe July 4th! 

Flight Track Log - Related Links

Times and Time Zones

All times are in EDT time to prevent confusion due to time zone crossing. See the CPT7773 flight status page for this flight to view local times or setup timezone preferences in your user account.

Time Position Orientation Groundspeed Altitude Reporting Facility
EDT Latitude Longitude Course Direction KTS MPH feet Rate Location/Type
Wed 08:30:17 PM 44.3878 -108.7842 133° Southeast 127 146 12,000  Level Salt Lake Center
Wed 08:31:19 PM 44.3578 -108.7361 131° Southeast 143 165 11,900 -48 Descending Salt Lake Center
Wed 08:32:21 PM 44.3297 -108.6881 129° Southeast 153 176 11,900  Level Salt Lake Center
Wed 08:33:23 PM 44.3011 -108.6425 131° Southeast 156 180 11,900  Level Salt Lake Center
Wed 08:34:24 PM 44.2728 -108.5972 131° Southeast 156 180 11,900  Level Salt Lake Center
Wed 08:35:00 PM 44.3520 -108.7458 133° Southeast  Level Estimated
Wed 08:35:26 PM 44.2444 -108.5519 131° Southeast 156 180 11,900  Level Salt Lake Center
Wed 08:36:28 PM 44.2119 -108.4961 129° Southeast 155 178 11,900  Level Salt Lake Center
Wed 08:37:29 PM 44.1831 -108.4522 133° Southeast 155 178 11,900  Level Salt Lake Center
Wed 08:38:31 PM 44.1544 -108.4058 131° Southeast 156 180 11,900  Level Salt Lake Center
Wed 08:39:33 PM 44.1258 -108.3608 132° Southeast 156 180 11,900  Level Salt Lake Center
Wed 08:40:35 PM 44.0981 -108.3158 131° Southeast 156 180 11,900  Level Salt Lake Center
Wed 08:41:36 PM 44.0706 -108.2714 131° Southeast 154 177 11,900  Level Salt Lake Center
Wed 08:42:38 PM 44.0431 -108.2253 130° Southeast 154 177 11,900  Level Salt Lake Center
Wed 08:43:40 PM 44.0089 -108.1725 132° Southeast 154 177 11,900  Level Salt Lake Center
Wed 08:44:42 PM 43.9808 -108.1286 132° Southeast 154 177 11,900  Level Salt Lake Center
Wed 08:45:44 PM 43.9522 -108.0836 131° Southeast 154 177 11,900  Level Salt Lake Center
Wed 08:46:46 PM 43.9247 -108.0378 130° Southeast 155 178 11,900  Level Salt Lake Center
Wed 08:47:47 PM 43.8964 -107.9942 132° Southeast 154 177 11,900  Level Salt Lake Center
Wed 08:48:49 PM 43.8683 -107.9503 132° Southeast 153 176 11,900  Level Salt Lake Center
Wed 08:49:51 PM 43.8333 -107.8969 132° Southeast 154 177 11,900  Level Salt Lake Center
Wed 08:50:53 PM 43.8044 -107.8519 132° Southeast 156 180 11,900  Level Salt Lake Center
Wed 08:51:55 PM 43.7761 -107.8069 131° Southeast 156 180 11,900  Level Salt Lake Center
Wed 08:52:56 PM 43.7469 -107.7617 132° Southeast 156 180 11,900 49 Level Salt Lake Center
Wed 08:53:58 PM 43.7183 -107.7150 130° Southeast 157 181 12,000 48 Climbing Salt Lake Center
Wed 08:55:00 PM 43.6894 -107.6706 132° Southeast 158 182 12,000 -48 Level Salt Lake Center
Wed 08:56:02 PM 43.6536 -107.6169 133° Southeast 158 182 11,900 -48 Descending Salt Lake Center
Wed 08:57:04 PM 43.6256 -107.5717 131° Southeast 157 181 11,900  Level Salt Lake Center
Wed 08:58:05 PM 43.5969 -107.5269 131° Southeast 156 180 11,900  Level Salt Lake Center
Wed 08:59:07 PM 43.5686 -107.4819 131° Southeast 156 180 11,900  Level Salt Lake Center
Wed 09:00:09 PM 43.5394 -107.4375 132° Southeast 156 180 11,900  Level Salt Lake Center
Wed 09:01:11 PM 43.5111 -107.3939 132° Southeast 155 178 11,900  Level Salt Lake Center
Wed 09:02:12 PM 43.4833 -107.3508 132° Southeast 153 176 11,900 49 Level Salt Lake Center
Wed 09:03:14 PM 43.4497 -107.3008 133° Southeast 150 173 12,000  Climbing Salt Lake Center
Wed 09:04:16 PM 43.4228 -107.2578 131° Southeast 149 171 11,900 -48 Descending Salt Lake Center
Wed 09:05:18 PM 43.3958 -107.2147 131° Southeast 149 171 11,900  Level Salt Lake Center
Wed 09:06:19 PM 43.3681 -107.1725 132° Southeast 149 171 11,900  Level Salt Lake Center
Wed 09:07:21 PM 43.3403 -107.1272 130° Southeast 154 177 11,900  Level Salt Lake Center
Wed 09:08:23 PM 43.3108 -107.0839 133° Southeast 155 178 11,900  Level Salt Lake Center
Wed 09:09:24 PM 43.2825 -107.0381 130° Southeast 157 181 11,900  Level Salt Lake Center
Wed 09:10:26 PM 43.2478 -106.9858 132° Southeast 156 180 11,900  Level Salt Lake Center
Wed 09:11:28 PM 43.2178 -106.9419 133° Southeast 157 181 11,900  Level Salt Lake Center
Wed 09:12:30 PM 43.1867 -106.8961 133° Southeast 155 178 11,900  Level Salt Lake Center
Wed 09:13:31 PM 43.1597 -106.8544 132° Southeast 154 177 11,900  Level Salt Lake Center
Wed 09:14:33 PM 43.1331 -106.8122 131° Southeast 153 176 11,900  Level Salt Lake Center
Wed 09:15:07 PM 43.1147 -106.7828 130° Southeast 155 178 11,900  Level Denver Center
Wed 09:16:09 PM 43.0878 -106.7406 131° Southeast 155 178 11,900  Level Denver Center
Wed 09:17:11 PM 43.0556 -106.6911 132° Southeast 155 178 11,900 -194 Level Denver Center
Wed 09:18:13 PM 43.0258 -106.6494 134° Southeast 159 183 11,500 -1,210 Descending Denver Center
Wed 09:19:15 PM 42.9867 -106.5958 135° Southeast 174 200 9,400 -1,935 Descending Denver Center
Wed 09:20:17 PM 42.9542 -106.5544 137° Southeast 171 197 7,500 -1,161 Descending Denver Center
Wed 09:21:19 PM 42.9153 -106.5117 141° Southeast 170 196 7,000 -484 Descending Denver Center

Login

Don't have an account? Register now (free) for customized features, flight alerts, and more!